sensor_id;sensor_type;location;lat;lon;timestamp;P1;durP1;ratioP1;P2;durP2;ratioP2
38972;SDS011;25333;50.762;4.470;2023-04-06T00:00:15;24.05;;;17.33;;
38972;SDS011;25333;50.762;4.470;2023-04-06T00:03:06;22.27;;;16.10;;
38972;SDS011;25333;50.762;4.470;2023-04-06T00:09:20;25.27;;;17.00;;
38972;SDS011;25333;50.762;4.470;2023-04-06T00:12:15;22.47;;;16.03;;
38972;SDS011;25333;50.762;4.470;2023-04-06T00:15:12;23.65;;;16.55;;
38972;SDS011;25333;50.762;4.470;2023-04-06T00:18:17;19.60;;;15.23;;
38972;SDS011;25333;50.762;4.470;2023-04-06T00:21:07;19.15;;;15.65;;
38972;SDS011;25333;50.762;4.470;2023-04-06T00:27:38;20.23;;;15.52;;
38972;SDS011;25333;50.762;4.470;2023-04-06T00:30:23;19.33;;;15.52;;
38972;SDS011;25333;50.762;4.470;2023-04-06T00:32:49;25.95;;;16.98;;
38972;SDS011;25333;50.762;4.470;2023-04-06T00:35:20;20.33;;;15.70;;
38972;SDS011;25333;50.762;4.470;2023-04-06T00:37:46;21.60;;;16.77;;
38972;SDS011;25333;50.762;4.470;2023-04-06T00:40:15;26.15;;;16.13;;
38972;SDS011;25333;50.762;4.470;2023-04-06T00:42:41;19.58;;;15.10;;
38972;SDS011;25333;50.762;4.470;2023-04-06T00:45:07;23.30;;;15.27;;
38972;SDS011;25333;50.762;4.470;2023-04-06T00:47:36;21.10;;;15.57;;
38972;SDS011;25333;50.762;4.470;2023-04-06T00:50:05;24.15;;;16.63;;
38972;SDS011;25333;50.762;4.470;2023-04-06T00:52:58;23.02;;;15.50;;
38972;SDS011;25333;50.762;4.470;2023-04-06T00:55:44;21.20;;;15.88;;
38972;SDS011;25333;50.762;4.470;2023-04-06T00:58:12;21.73;;;15.98;;
38972;SDS011;25333;50.762;4.470;2023-04-06T01:01:03;23.67;;;15.98;;
38972;SDS011;25333;50.762;4.470;2023-04-06T01:03:47;23.60;;;17.35;;
38972;SDS011;25333;50.762;4.470;2023-04-06T01:07:03;20.58;;;14.48;;
38972;SDS011;25333;50.762;4.470;2023-04-06T01:09:39;21.58;;;15.93;;
38972;SDS011;25333;50.762;4.470;2023-04-06T01:15:48;22.83;;;15.60;;
38972;SDS011;25333;50.762;4.470;2023-04-06T01:18:40;20.10;;;14.43;;
38972;SDS011;25333;50.762;4.470;2023-04-06T01:21:15;23.52;;;15.98;;
38972;SDS011;25333;50.762;4.470;2023-04-06T01:24:09;21.23;;;15.73;;
38972;SDS011;25333;50.762;4.470;2023-04-06T01:26:58;26.10;;;16.92;;
38972;SDS011;25333;50.762;4.470;2023-04-06T01:29:23;22.27;;;16.10;;
38972;SDS011;25333;50.762;4.470;2023-04-06T01:31:50;21.25;;;14.40;;
38972;SDS011;25333;50.762;4.470;2023-04-06T01:34:16;22.30;;;16.08;;
38972;SDS011;25333;50.762;4.470;2023-04-06T01:36:42;21.33;;;15.68;;
38972;SDS011;25333;50.762;4.470;2023-04-06T01:39:08;23.20;;;16.75;;
38972;SDS011;25333;50.762;4.470;2023-04-06T01:41:35;19.42;;;14.82;;
38972;SDS011;25333;50.762;4.470;2023-04-06T01:44:01;20.75;;;15.52;;
38972;SDS011;25333;50.762;4.470;2023-04-06T01:46:28;22.52;;;14.82;;
38972;SDS011;25333;50.762;4.470;2023-04-06T01:48:55;20.35;;;15.23;;
38972;SDS011;25333;50.762;4.470;2023-04-06T01:51:20;23.77;;;14.47;;
38972;SDS011;25333;50.762;4.470;2023-04-06T01:53:46;22.52;;;15.50;;
38972;SDS011;25333;50.762;4.470;2023-04-06T01:56:13;20.35;;;14.13;;
38972;SDS011;25333;50.762;4.470;2023-04-06T01:58:39;19.63;;;14.33;;
38972;SDS011;25333;50.762;4.470;2023-04-06T02:01:06;21.10;;;14.35;;
38972;SDS011;25333;50.762;4.470;2023-04-06T02:03:39;16.92;;;12.63;;
38972;SDS011;25333;50.762;4.470;2023-04-06T02:06:44;18.92;;;14.30;;
38972;SDS011;25333;50.762;4.470;2023-04-06T02:09:34;17.63;;;13.82;;
38972;SDS011;25333;50.762;4.470;2023-04-06T02:12:01;18.85;;;12.95;;
38972;SDS011;25333;50.762;4.470;2023-04-06T02:14:29;19.00;;;13.25;;
38972;SDS011;25333;50.762;4.470;2023-04-06T02:17:49;17.00;;;12.65;;
38972;SDS011;25333;50.762;4.470;2023-04-06T02:20:15;17.38;;;12.43;;
38972;SDS011;25333;50.762;4.470;2023-04-06T02:23:06;15.63;;;12.35;;
38972;SDS011;25333;50.762;4.470;2023-04-06T02:25:54;16.20;;;11.60;;
38972;SDS011;25333;50.762;4.470;2023-04-06T02:28:41;18.30;;;12.60;;
38972;SDS011;25333;50.762;4.470;2023-04-06T02:31:38;19.40;;;12.82;;
38972;SDS011;25333;50.762;4.470;2023-04-06T02:34:06;17.60;;;11.40;;
38972;SDS011;25333;50.762;4.470;2023-04-06T02:36:37;17.52;;;12.82;;
38972;SDS011;25333;50.762;4.470;2023-04-06T02:39:04;17.77;;;12.80;;
38972;SDS011;25333;50.762;4.470;2023-04-06T02:41:30;17.33;;;12.00;;
38972;SDS011;25333;50.762;4.470;2023-04-06T02:43:57;15.95;;;11.77;;
38972;SDS011;25333;50.762;4.470;2023-04-06T02:46:22;16.52;;;12.27;;
38972;SDS011;25333;50.762;4.470;2023-04-06T02:48:53;18.38;;;12.35;;
38972;SDS011;25333;50.762;4.470;2023-04-06T02:51:40;16.48;;;11.63;;
38972;SDS011;25333;50.762;4.470;2023-04-06T02:54:13;16.13;;;11.52;;
38972;SDS011;25333;50.762;4.470;2023-04-06T02:56:41;16.02;;;11.05;;
38972;SDS011;25333;50.762;4.470;2023-04-06T02:59:10;15.90;;;11.07;;
38972;SDS011;25333;50.762;4.470;2023-04-06T03:01:37;15.10;;;11.52;;
38972;SDS011;25333;50.762;4.470;2023-04-06T03:04:07;14.43;;;10.47;;
38972;SDS011;25333;50.762;4.470;2023-04-06T03:09:54;14.52;;;11.10;;
38972;SDS011;25333;50.762;4.470;2023-04-06T03:12:27;15.07;;;11.55;;
38972;SDS011;25333;50.762;4.470;2023-04-06T03:14:53;15.63;;;10.88;;
38972;SDS011;25333;50.762;4.470;2023-04-06T03:20:31;15.40;;;12.15;;
38972;SDS011;25333;50.762;4.470;2023-04-06T03:22:58;15.95;;;12.20;;
38972;SDS011;25333;50.762;4.470;2023-04-06T03:25:26;16.00;;;12.47;;
38972;SDS011;25333;50.762;4.470;2023-04-06T03:27:55;17.25;;;13.50;;
38972;SDS011;25333;50.762;4.470;2023-04-06T03:30:25;18.13;;;12.63;;
38972;SDS011;25333;50.762;4.470;2023-04-06T03:32:58;17.73;;;12.93;;
38972;SDS011;25333;50.762;4.470;2023-04-06T03:35:53;18.67;;;13.68;;
38972;SDS011;25333;50.762;4.470;2023-04-06T03:38:23;16.75;;;12.02;;
38972;SDS011;25333;50.762;4.470;2023-04-06T03:41:38;20.48;;;15.68;;
38972;SDS011;25333;50.762;4.470;2023-04-06T03:44:05;19.77;;;15.20;;
38972;SDS011;25333;50.762;4.470;2023-04-06T03:46:31;21.08;;;14.23;;
38972;SDS011;25333;50.762;4.470;2023-04-06T03:48:57;18.25;;;13.38;;
38972;SDS011;25333;50.762;4.470;2023-04-06T03:51:23;16.30;;;13.43;;
38972;SDS011;25333;50.762;4.470;2023-04-06T03:53:52;18.30;;;13.85;;
38972;SDS011;25333;50.762;4.470;2023-04-06T03:56:18;19.10;;;12.97;;
38972;SDS011;25333;50.762;4.470;2023-04-06T03:58:45;17.10;;;13.70;;
38972;SDS011;25333;50.762;4.470;2023-04-06T04:01:16;16.00;;;13.13;;
38972;SDS011;25333;50.762;4.470;2023-04-06T04:03:43;17.73;;;12.60;;
38972;SDS011;25333;50.762;4.470;2023-04-06T04:06:09;19.13;;;12.73;;
38972;SDS011;25333;50.762;4.470;2023-04-06T04:08:36;14.07;;;12.15;;
38972;SDS011;25333;50.762;4.470;2023-04-06T04:11:04;15.60;;;12.32;;
38972;SDS011;25333;50.762;4.470;2023-04-06T04:13:42;15.43;;;11.82;;
38972;SDS011;25333;50.762;4.470;2023-04-06T04:16:28;16.02;;;11.88;;
38972;SDS011;25333;50.762;4.470;2023-04-06T04:19:14;15.82;;;11.18;;
38972;SDS011;25333;50.762;4.470;2023-04-06T04:24:53;15.43;;;11.05;;
38972;SDS011;25333;50.762;4.470;2023-04-06T04:27:27;14.80;;;11.23;;
38972;SDS011;25333;50.762;4.470;2023-04-06T04:30:10;17.40;;;11.95;;
38972;SDS011;25333;50.762;4.470;2023-04-06T04:32:36;15.32;;;11.75;;
38972;SDS011;25333;50.762;4.470;2023-04-06T04:35:05;16.75;;;12.18;;
38972;SDS011;25333;50.762;4.470;2023-04-06T04:37:40;17.60;;;12.88;;
38972;SDS011;25333;50.762;4.470;2023-04-06T04:40:20;17.17;;;11.98;;
38972;SDS011;25333;50.762;4.470;2023-04-06T04:42:45;16.30;;;12.90;;
38972;SDS011;25333;50.762;4.470;2023-04-06T04:45:20;21.92;;;14.32;;
38972;SDS011;25333;50.762;4.470;2023-04-06T04:47:46;18.70;;;12.82;;
38972;SDS011;25333;50.762;4.470;2023-04-06T04:50:14;18.33;;;12.57;;
38972;SDS011;25333;50.762;4.470;2023-04-06T04:53:11;16.17;;;11.40;;
38972;SDS011;25333;50.762;4.470;2023-04-06T04:56:23;15.90;;;11.82;;
38972;SDS011;25333;50.762;4.470;2023-04-06T04:59:31;17.52;;;11.90;;
38972;SDS011;25333;50.762;4.470;2023-04-06T05:02:48;16.02;;;12.00;;
38972;SDS011;25333;50.762;4.470;2023-04-06T05:05:38;17.57;;;11.87;;
38972;SDS011;25333;50.762;4.470;2023-04-06T05:08:04;14.32;;;11.50;;
38972;SDS011;25333;50.762;4.470;2023-04-06T05:10:30;15.57;;;11.55;;
38972;SDS011;25333;50.762;4.470;2023-04-06T05:12:56;20.55;;;13.48;;
38972;SDS011;25333;50.762;4.470;2023-04-06T05:15:22;17.35;;;12.07;;
38972;SDS011;25333;50.762;4.470;2023-04-06T05:17:47;17.23;;;11.88;;
38972;SDS011;25333;50.762;4.470;2023-04-06T05:20:13;14.07;;;12.17;;
38972;SDS011;25333;50.762;4.470;2023-04-06T05:22:39;15.93;;;13.20;;
38972;SDS011;25333;50.762;4.470;2023-04-06T05:25:05;15.20;;;11.33;;
38972;SDS011;25333;50.762;4.470;2023-04-06T05:27:31;18.65;;;14.25;;
38972;SDS011;25333;50.762;4.470;2023-04-06T05:29:56;18.25;;;12.73;;
38972;SDS011;25333;50.762;4.470;2023-04-06T05:32:22;19.67;;;13.23;;
38972;SDS011;25333;50.762;4.470;2023-04-06T05:34:49;18.08;;;11.82;;
38972;SDS011;25333;50.762;4.470;2023-04-06T05:37:15;15.53;;;10.97;;
38972;SDS011;25333;50.762;4.470;2023-04-06T05:39:41;15.60;;;11.40;;
38972;SDS011;25333;50.762;4.470;2023-04-06T05:42:06;17.63;;;11.40;;
38972;SDS011;25333;50.762;4.470;2023-04-06T05:44:32;23.00;;;11.73;;
38972;SDS011;25333;50.762;4.470;2023-04-06T05:46:58;20.63;;;13.10;;
38972;SDS011;25333;50.762;4.470;2023-04-06T05:49:23;30.83;;;15.13;;
38972;SDS011;25333;50.762;4.470;2023-04-06T05:51:49;20.15;;;12.93;;
38972;SDS011;25333;50.762;4.470;2023-04-06T05:54:15;29.83;;;15.27;;
38972;SDS011;25333;50.762;4.470;2023-04-06T05:56:41;29.57;;;14.30;;
38972;SDS011;25333;50.762;4.470;2023-04-06T05:59:06;22.73;;;13.73;;
38972;SDS011;25333;50.762;4.470;2023-04-06T06:01:32;28.17;;;16.15;;
38972;SDS011;25333;50.762;4.470;2023-04-06T06:04:02;29.27;;;15.45;;
38972;SDS011;25333;50.762;4.470;2023-04-06T06:06:28;26.05;;;15.48;;
38972;SDS011;25333;50.762;4.470;2023-04-06T06:08:57;28.17;;;14.45;;
38972;SDS011;25333;50.762;4.470;2023-04-06T06:11:25;29.13;;;15.45;;
38972;SDS011;25333;50.762;4.470;2023-04-06T06:13:51;29.13;;;15.05;;
38972;SDS011;25333;50.762;4.470;2023-04-06T06:16:17;22.98;;;14.48;;
38972;SDS011;25333;50.762;4.470;2023-04-06T06:18:43;23.13;;;15.15;;
38972;SDS011;25333;50.762;4.470;2023-04-06T06:21:09;24.38;;;14.68;;
38972;SDS011;25333;50.762;4.470;2023-04-06T06:23:37;18.25;;;13.80;;
38972;SDS011;25333;50.762;4.470;2023-04-06T06:26:03;20.00;;;14.68;;
38972;SDS011;25333;50.762;4.470;2023-04-06T06:28:29;23.30;;;14.65;;
38972;SDS011;25333;50.762;4.470;2023-04-06T06:30:55;22.25;;;14.15;;
38972;SDS011;25333;50.762;4.470;2023-04-06T06:33:20;22.52;;;15.20;;
38972;SDS011;25333;50.762;4.470;2023-04-06T06:35:46;20.65;;;14.40;;
38972;SDS011;25333;50.762;4.470;2023-04-06T06:38:12;20.77;;;14.03;;
38972;SDS011;25333;50.762;4.470;2023-04-06T06:40:39;22.77;;;14.57;;
38972;SDS011;25333;50.762;4.470;2023-04-06T06:43:05;19.48;;;12.40;;
38972;SDS011;25333;50.762;4.470;2023-04-06T06:45:31;19.37;;;13.27;;
38972;SDS011;25333;50.762;4.470;2023-04-06T06:47:57;20.43;;;14.10;;
38972;SDS011;25333;50.762;4.470;2023-04-06T06:50:23;19.27;;;12.48;;
38972;SDS011;25333;50.762;4.470;2023-04-06T06:52:48;21.88;;;13.40;;
38972;SDS011;25333;50.762;4.470;2023-04-06T06:55:14;18.08;;;12.93;;
38972;SDS011;25333;50.762;4.470;2023-04-06T06:57:40;18.63;;;11.88;;
38972;SDS011;25333;50.762;4.470;2023-04-06T07:00:07;16.90;;;11.55;;
38972;SDS011;25333;50.762;4.470;2023-04-06T07:02:38;21.65;;;12.23;;
38972;SDS011;25333;50.762;4.470;2023-04-06T07:05:04;19.27;;;12.77;;
38972;SDS011;25333;50.762;4.470;2023-04-06T07:07:31;19.42;;;13.00;;
38972;SDS011;25333;50.762;4.470;2023-04-06T07:09:58;18.65;;;12.00;;
38972;SDS011;25333;50.762;4.470;2023-04-06T07:12:24;18.02;;;11.60;;
38972;SDS011;25333;50.762;4.470;2023-04-06T07:14:50;18.07;;;12.37;;
38972;SDS011;25333;50.762;4.470;2023-04-06T07:17:15;18.02;;;12.45;;
38972;SDS011;25333;50.762;4.470;2023-04-06T07:19:41;21.02;;;13.75;;
38972;SDS011;25333;50.762;4.470;2023-04-06T07:22:07;19.80;;;13.60;;
38972;SDS011;25333;50.762;4.470;2023-04-06T07:24:32;29.98;;;22.27;;
38972;SDS011;25333;50.762;4.470;2023-04-06T07:26:58;23.70;;;17.45;;
38972;SDS011;25333;50.762;4.470;2023-04-06T07:29:27;20.75;;;15.80;;
38972;SDS011;25333;50.762;4.470;2023-04-06T07:31:53;23.52;;;14.60;;
38972;SDS011;25333;50.762;4.470;2023-04-06T07:34:20;22.83;;;14.30;;
38972;SDS011;25333;50.762;4.470;2023-04-06T07:36:46;21.97;;;15.47;;
38972;SDS011;25333;50.762;4.470;2023-04-06T07:39:11;21.50;;;14.03;;
38972;SDS011;25333;50.762;4.470;2023-04-06T07:41:37;28.15;;;20.75;;
38972;SDS011;25333;50.762;4.470;2023-04-06T07:44:03;30.98;;;24.60;;
38972;SDS011;25333;50.762;4.470;2023-04-06T07:46:29;25.55;;;18.05;;
38972;SDS011;25333;50.762;4.470;2023-04-06T07:48:56;23.02;;;17.38;;
38972;SDS011;25333;50.762;4.470;2023-04-06T07:51:22;22.48;;;15.63;;
38972;SDS011;25333;50.762;4.470;2023-04-06T07:53:50;23.08;;;15.25;;
38972;SDS011;25333;50.762;4.470;2023-04-06T07:56:16;22.33;;;15.52;;
38972;SDS011;25333;50.762;4.470;2023-04-06T07:58:42;24.65;;;15.15;;
38972;SDS011;25333;50.762;4.470;2023-04-06T08:01:07;20.60;;;15.43;;
38972;SDS011;25333;50.762;4.470;2023-04-06T08:03:33;22.67;;;15.20;;
38972;SDS011;25333;50.762;4.470;2023-04-06T08:05:59;25.77;;;16.03;;
38972;SDS011;25333;50.762;4.470;2023-04-06T08:08:25;26.93;;;16.83;;
38972;SDS011;25333;50.762;4.470;2023-04-06T08:10:51;22.30;;;15.77;;
38972;SDS011;25333;50.762;4.470;2023-04-06T08:13:16;24.42;;;15.45;;
38972;SDS011;25333;50.762;4.470;2023-04-06T08:15:42;24.07;;;15.33;;
38972;SDS011;25333;50.762;4.470;2023-04-06T08:18:08;22.00;;;13.93;;
38972;SDS011;25333;50.762;4.470;2023-04-06T08:20:34;21.13;;;14.60;;
38972;SDS011;25333;50.762;4.470;2023-04-06T08:23:00;21.20;;;15.80;;
38972;SDS011;25333;50.762;4.470;2023-04-06T08:25:26;22.23;;;16.40;;
38972;SDS011;25333;50.762;4.470;2023-04-06T08:27:52;27.20;;;16.20;;
38972;SDS011;25333;50.762;4.470;2023-04-06T08:30:18;19.10;;;13.90;;
38972;SDS011;25333;50.762;4.470;2023-04-06T08:32:44;22.33;;;14.10;;
38972;SDS011;25333;50.762;4.470;2023-04-06T08:35:10;22.05;;;14.48;;
38972;SDS011;25333;50.762;4.470;2023-04-06T08:37:37;19.23;;;14.05;;
38972;SDS011;25333;50.762;4.470;2023-04-06T08:40:02;18.77;;;13.05;;
38972;SDS011;25333;50.762;4.470;2023-04-06T08:42:31;21.08;;;14.30;;
38972;SDS011;25333;50.762;4.470;2023-04-06T08:44:59;17.37;;;12.70;;
38972;SDS011;25333;50.762;4.470;2023-04-06T08:47:25;18.33;;;12.85;;
38972;SDS011;25333;50.762;4.470;2023-04-06T08:49:51;22.15;;;14.23;;
38972;SDS011;25333;50.762;4.470;2023-04-06T08:52:18;22.85;;;14.77;;
38972;SDS011;25333;50.762;4.470;2023-04-06T08:54:44;22.77;;;14.95;;
38972;SDS011;25333;50.762;4.470;2023-04-06T08:57:10;20.10;;;13.13;;
38972;SDS011;25333;50.762;4.470;2023-04-06T08:59:37;19.25;;;12.85;;
38972;SDS011;25333;50.762;4.470;2023-04-06T09:02:03;20.92;;;14.30;;
38972;SDS011;25333;50.762;4.470;2023-04-06T09:04:32;19.48;;;12.23;;
38972;SDS011;25333;50.762;4.470;2023-04-06T09:06:59;21.70;;;13.60;;
38972;SDS011;25333;50.762;4.470;2023-04-06T09:09:25;18.60;;;13.57;;
38972;SDS011;25333;50.762;4.470;2023-04-06T09:11:51;19.73;;;13.03;;
38972;SDS011;25333;50.762;4.470;2023-04-06T09:14:32;21.10;;;12.93;;
38972;SDS011;25333;50.762;4.470;2023-04-06T09:17:02;23.02;;;15.05;;
38972;SDS011;25333;50.762;4.470;2023-04-06T09:19:29;23.05;;;15.30;;
38972;SDS011;25333;50.762;4.470;2023-04-06T09:22:04;22.75;;;14.48;;
38972;SDS011;25333;50.762;4.470;2023-04-06T09:27:06;22.75;;;15.80;;
38972;SDS011;25333;50.762;4.470;2023-04-06T09:29:32;18.58;;;13.73;;
38972;SDS011;25333;50.762;4.470;2023-04-06T09:32:02;22.05;;;14.65;;
38972;SDS011;25333;50.762;4.470;2023-04-06T09:34:28;24.00;;;14.38;;
38972;SDS011;25333;50.762;4.470;2023-04-06T09:36:54;20.23;;;13.98;;
38972;SDS011;25333;50.762;4.470;2023-04-06T09:39:21;21.30;;;14.40;;
38972;SDS011;25333;50.762;4.470;2023-04-06T09:41:50;19.35;;;13.52;;
38972;SDS011;25333;50.762;4.470;2023-04-06T09:44:17;18.92;;;13.57;;
38972;SDS011;25333;50.762;4.470;2023-04-06T09:46:43;17.88;;;12.90;;
38972;SDS011;25333;50.762;4.470;2023-04-06T09:49:11;18.10;;;12.32;;
38972;SDS011;25333;50.762;4.470;2023-04-06T09:51:38;19.42;;;13.00;;
38972;SDS011;25333;50.762;4.470;2023-04-06T09:54:04;16.47;;;12.53;;
38972;SDS011;25333;50.762;4.470;2023-04-06T09:56:31;17.15;;;12.15;;
38972;SDS011;25333;50.762;4.470;2023-04-06T09:59:12;17.58;;;11.73;;
38972;SDS011;25333;50.762;4.470;2023-04-06T10:01:39;16.52;;;11.48;;
38972;SDS011;25333;50.762;4.470;2023-04-06T10:06:55;15.47;;;11.47;;
38972;SDS011;25333;50.762;4.470;2023-04-06T10:09:23;14.80;;;10.57;;
38972;SDS011;25333;50.762;4.470;2023-04-06T10:11:53;15.52;;;10.82;;
38972;SDS011;25333;50.762;4.470;2023-04-06T10:14:19;18.73;;;11.77;;
38972;SDS011;25333;50.762;4.470;2023-04-06T10:16:45;16.90;;;12.55;;
38972;SDS011;25333;50.762;4.470;2023-04-06T10:19:18;15.88;;;11.35;;
38972;SDS011;25333;50.762;4.470;2023-04-06T10:21:51;18.50;;;11.57;;
38972;SDS011;25333;50.762;4.470;2023-04-06T10:24:19;19.42;;;12.80;;
38972;SDS011;25333;50.762;4.470;2023-04-06T10:27:03;19.52;;;13.88;;
38972;SDS011;25333;50.762;4.470;2023-04-06T10:29:44;20.65;;;13.88;;
38972;SDS011;25333;50.762;4.470;2023-04-06T10:32:11;17.90;;;13.50;;
38972;SDS011;25333;50.762;4.470;2023-04-06T10:34:37;17.00;;;13.17;;
38972;SDS011;25333;50.762;4.470;2023-04-06T10:37:15;19.73;;;13.73;;
38972;SDS011;25333;50.762;4.470;2023-04-06T10:39:47;19.50;;;13.93;;
38972;SDS011;25333;50.762;4.470;2023-04-06T10:42:25;21.58;;;13.75;;
38972;SDS011;25333;50.762;4.470;2023-04-06T10:45:01;18.73;;;12.77;;
38972;SDS011;25333;50.762;4.470;2023-04-06T10:47:29;20.65;;;13.73;;
38972;SDS011;25333;50.762;4.470;2023-04-06T10:50:04;20.50;;;13.57;;
38972;SDS011;25333;50.762;4.470;2023-04-06T10:52:31;22.60;;;14.73;;
38972;SDS011;25333;50.762;4.470;2023-04-06T10:54:56;18.88;;;13.95;;
38972;SDS011;25333;50.762;4.470;2023-04-06T10:57:29;18.58;;;12.48;;
38972;SDS011;25333;50.762;4.470;2023-04-06T10:59:57;18.17;;;13.48;;
38972;SDS011;25333;50.762;4.470;2023-04-06T11:02:23;17.77;;;13.20;;
38972;SDS011;25333;50.762;4.470;2023-04-06T11:04:55;17.60;;;12.87;;
38972;SDS011;25333;50.762;4.470;2023-04-06T11:07:23;19.40;;;13.52;;
38972;SDS011;25333;50.762;4.470;2023-04-06T11:09:52;16.63;;;12.13;;
38972;SDS011;25333;50.762;4.470;2023-04-06T11:12:27;16.83;;;11.95;;
38972;SDS011;25333;50.762;4.470;2023-04-06T11:17:27;20.10;;;12.73;;
38972;SDS011;25333;50.762;4.470;2023-04-06T11:19:54;18.67;;;12.73;;
38972;SDS011;25333;50.762;4.470;2023-04-06T11:22:20;19.15;;;12.65;;
38972;SDS011;25333;50.762;4.470;2023-04-06T11:24:45;18.85;;;13.25;;
38972;SDS011;25333;50.762;4.470;2023-04-06T11:27:11;16.70;;;12.63;;
38972;SDS011;25333;50.762;4.470;2023-04-06T11:29:39;19.83;;;13.95;;
38972;SDS011;25333;50.762;4.470;2023-04-06T11:32:05;14.57;;;11.52;;
38972;SDS011;25333;50.762;4.470;2023-04-06T11:34:39;17.58;;;12.35;;
38972;SDS011;25333;50.762;4.470;2023-04-06T11:37:09;16.15;;;12.73;;
38972;SDS011;25333;50.762;4.470;2023-04-06T11:39:40;20.50;;;13.23;;
38972;SDS011;25333;50.762;4.470;2023-04-06T11:42:08;19.60;;;13.23;;
38972;SDS011;25333;50.762;4.470;2023-04-06T11:44:35;17.20;;;12.82;;
38972;SDS011;25333;50.762;4.470;2023-04-06T11:47:05;19.58;;;13.45;;
38972;SDS011;25333;50.762;4.470;2023-04-06T11:49:32;18.77;;;13.52;;
38972;SDS011;25333;50.762;4.470;2023-04-06T11:52:01;19.58;;;12.82;;
38972;SDS011;25333;50.762;4.470;2023-04-06T11:54:34;16.65;;;12.77;;
38972;SDS011;25333;50.762;4.470;2023-04-06T11:57:01;15.73;;;12.63;;
38972;SDS011;25333;50.762;4.470;2023-04-06T11:59:27;20.38;;;13.13;;
38972;SDS011;25333;50.762;4.470;2023-04-06T12:01:53;19.83;;;14.75;;
38972;SDS011;25333;50.762;4.470;2023-04-06T12:04:19;18.53;;;13.13;;
38972;SDS011;25333;50.762;4.470;2023-04-06T12:06:45;19.77;;;14.25;;
38972;SDS011;25333;50.762;4.470;2023-04-06T12:09:11;19.83;;;13.00;;
38972;SDS011;25333;50.762;4.470;2023-04-06T12:11:37;20.93;;;13.57;;
38972;SDS011;25333;50.762;4.470;2023-04-06T12:14:04;18.95;;;14.05;;
38972;SDS011;25333;50.762;4.470;2023-04-06T12:16:33;19.33;;;13.98;;
38972;SDS011;25333;50.762;4.470;2023-04-06T12:18:59;21.13;;;15.27;;
38972;SDS011;25333;50.762;4.470;2023-04-06T12:21:29;19.67;;;14.23;;
38972;SDS011;25333;50.762;4.470;2023-04-06T12:23:58;19.00;;;13.43;;
38972;SDS011;25333;50.762;4.470;2023-04-06T12:26:24;19.48;;;13.85;;
38972;SDS011;25333;50.762;4.470;2023-04-06T12:28:50;21.40;;;15.07;;
38972;SDS011;25333;50.762;4.470;2023-04-06T12:31:25;23.33;;;15.20;;
38972;SDS011;25333;50.762;4.470;2023-04-06T12:33:51;17.70;;;12.90;;
38972;SDS011;25333;50.762;4.470;2023-04-06T12:36:17;22.77;;;14.73;;
38972;SDS011;25333;50.762;4.470;2023-04-06T12:38:44;20.17;;;15.38;;
38972;SDS011;25333;50.762;4.470;2023-04-06T12:41:11;20.67;;;15.48;;
38972;SDS011;25333;50.762;4.470;2023-04-06T12:43:39;22.25;;;14.43;;
38972;SDS011;25333;50.762;4.470;2023-04-06T12:46:05;24.50;;;15.40;;
38972;SDS011;25333;50.762;4.470;2023-04-06T12:48:31;22.15;;;16.27;;
38972;SDS011;25333;50.762;4.470;2023-04-06T12:50:58;20.30;;;15.50;;
38972;SDS011;25333;50.762;4.470;2023-04-06T12:53:24;23.00;;;17.27;;
38972;SDS011;25333;50.762;4.470;2023-04-06T12:55:51;22.52;;;16.15;;
38972;SDS011;25333;50.762;4.470;2023-04-06T12:58:16;23.17;;;15.63;;
38972;SDS011;25333;50.762;4.470;2023-04-06T13:00:42;24.33;;;15.93;;
38972;SDS011;25333;50.762;4.470;2023-04-06T13:03:08;19.97;;;14.40;;
38972;SDS011;25333;50.762;4.470;2023-04-06T13:05:34;21.52;;;14.60;;
38972;SDS011;25333;50.762;4.470;2023-04-06T13:08:00;21.85;;;16.40;;
38972;SDS011;25333;50.762;4.470;2023-04-06T13:10:26;23.55;;;16.05;;
38972;SDS011;25333;50.762;4.470;2023-04-06T13:12:51;20.13;;;15.77;;
38972;SDS011;25333;50.762;4.470;2023-04-06T13:15:17;23.42;;;15.52;;
38972;SDS011;25333;50.762;4.470;2023-04-06T13:17:43;19.95;;;15.43;;
38972;SDS011;25333;50.762;4.470;2023-04-06T13:20:09;24.27;;;15.55;;
38972;SDS011;25333;50.762;4.470;2023-04-06T13:22:35;22.33;;;16.17;;
38972;SDS011;25333;50.762;4.470;2023-04-06T13:25:01;21.50;;;15.10;;
38972;SDS011;25333;50.762;4.470;2023-04-06T13:27:26;22.33;;;15.97;;
38972;SDS011;25333;50.762;4.470;2023-04-06T13:29:52;21.65;;;15.48;;
38972;SDS011;25333;50.762;4.470;2023-04-06T13:32:19;23.27;;;15.52;;
38972;SDS011;25333;50.762;4.470;2023-04-06T13:34:45;24.48;;;16.08;;
38972;SDS011;25333;50.762;4.470;2023-04-06T13:37:13;22.73;;;15.77;;
38972;SDS011;25333;50.762;4.470;2023-04-06T13:39:38;22.33;;;16.30;;
38972;SDS011;25333;50.762;4.470;2023-04-06T13:42:04;26.10;;;16.95;;
38972;SDS011;25333;50.762;4.470;2023-04-06T13:44:31;23.08;;;15.63;;
38972;SDS011;25333;50.762;4.470;2023-04-06T13:46:57;24.10;;;17.08;;
38972;SDS011;25333;50.762;4.470;2023-04-06T13:49:23;28.83;;;18.25;;
38972;SDS011;25333;50.762;4.470;2023-04-06T13:51:48;23.60;;;16.03;;
38972;SDS011;25333;50.762;4.470;2023-04-06T13:54:14;22.90;;;16.42;;
38972;SDS011;25333;50.762;4.470;2023-04-06T13:56:40;24.42;;;15.40;;
38972;SDS011;25333;50.762;4.470;2023-04-06T13:59:05;21.07;;;15.60;;
38972;SDS011;25333;50.762;4.470;2023-04-06T14:01:31;20.48;;;15.82;;
38972;SDS011;25333;50.762;4.470;2023-04-06T14:03:57;23.57;;;15.33;;
38972;SDS011;25333;50.762;4.470;2023-04-06T14:06:22;20.75;;;15.77;;
38972;SDS011;25333;50.762;4.470;2023-04-06T14:08:48;20.37;;;16.27;;
38972;SDS011;25333;50.762;4.470;2023-04-06T14:11:13;22.42;;;16.35;;
38972;SDS011;25333;50.762;4.470;2023-04-06T14:13:40;20.45;;;15.40;;
38972;SDS011;25333;50.762;4.470;2023-04-06T14:16:06;22.70;;;16.27;;
38972;SDS011;25333;50.762;4.470;2023-04-06T14:18:32;24.23;;;17.27;;
38972;SDS011;25333;50.762;4.470;2023-04-06T14:20:59;24.00;;;16.60;;
38972;SDS011;25333;50.762;4.470;2023-04-06T14:23:26;23.50;;;16.45;;
38972;SDS011;25333;50.762;4.470;2023-04-06T14:26:02;24.67;;;17.10;;
38972;SDS011;25333;50.762;4.470;2023-04-06T14:28:29;22.52;;;16.42;;
38972;SDS011;25333;50.762;4.470;2023-04-06T14:30:55;22.90;;;17.52;;
38972;SDS011;25333;50.762;4.470;2023-04-06T14:33:21;21.77;;;16.80;;
38972;SDS011;25333;50.762;4.470;2023-04-06T14:35:47;23.23;;;16.45;;
38972;SDS011;25333;50.762;4.470;2023-04-06T14:38:12;23.70;;;17.33;;
38972;SDS011;25333;50.762;4.470;2023-04-06T14:40:38;24.37;;;18.13;;
38972;SDS011;25333;50.762;4.470;2023-04-06T14:43:03;22.75;;;16.88;;
38972;SDS011;25333;50.762;4.470;2023-04-06T14:45:32;23.80;;;17.58;;
38972;SDS011;25333;50.762;4.470;2023-04-06T14:47:58;26.27;;;18.27;;
38972;SDS011;25333;50.762;4.470;2023-04-06T14:50:24;23.27;;;18.45;;
38972;SDS011;25333;50.762;4.470;2023-04-06T14:52:49;27.15;;;18.65;;
38972;SDS011;25333;50.762;4.470;2023-04-06T14:55:15;23.57;;;18.07;;
38972;SDS011;25333;50.762;4.470;2023-04-06T14:57:41;25.75;;;18.55;;
38972;SDS011;25333;50.762;4.470;2023-04-06T15:00:07;25.20;;;18.83;;
38972;SDS011;25333;50.762;4.470;2023-04-06T15:02:34;25.77;;;17.70;;
38972;SDS011;25333;50.762;4.470;2023-04-06T15:05:00;26.87;;;18.23;;